.
WxDataArchive / Data Records for 2008-11-19
2008-11-18 November 2008 2008-11-20

Data Records for Wednesday, 19 November 2008

Time	Temp	Chill	HIndex	Humid	Dewpt	 Wind 	HiWind	WindDir	Rain 	Barom 
-----	----	-----	------	-----	-----	------	------	-------	-----	----- 
00:00	18.0	18.0	18.0	86	14.5	0	0	---	0.00	30.369 
00:05	18.0	18.0	18.0	86	14.5	0	0	---	0.00	30.370 
00:10	18.0	18.0	18.0	86	14.5	0	0	---	0.00	30.371 
00:15	18.1	18.1	18.1	86	14.6	0	0	---	0.00	30.370 
00:20	18.3	18.3	18.3	87	15.1	0	0	---	0.00	30.372 
00:25	18.4	18.4	18.4	87	15.2	0	0	---	0.00	30.370 
00:30	18.6	18.6	18.6	87	15.4	0	0	---	0.00	30.367 
00:35	18.9	18.9	18.9	87	15.7	0	0	---	0.00	30.361 
00:40	19.1	19.1	19.1	88	16.1	0	0	---	0.00	30.357 
00:45	19.4	19.4	19.4	88	16.4	0	0	---	0.00	30.352 
00:50	19.7	19.7	19.7	88	16.7	0	0	---	0.00	30.352 
00:55	20.0	20.0	20.0	88	17.0	0	0	---	0.00	30.351 
01:00	20.3	20.3	20.3	88	17.3	0	0	---	0.00	30.347 
01:05	20.6	20.6	20.6	88	17.6	0	0	---	0.00	30.337 
01:10	21.0	21.0	21.0	88	18.0	0	0	---	0.00	30.333 
01:15	21.3	21.3	21.3	88	18.3	0	0	---	0.00	30.331 
01:20	21.6	21.6	21.6	88	18.6	0	0	---	0.00	30.333 
01:25	21.9	21.9	21.9	88	18.9	0	1	292	0.00	30.334 
01:30	22.2	22.2	22.2	87	18.9	0	1	292	0.00	30.333 
01:35	22.4	22.4	22.4	86	18.9	0	0	---	0.00	30.331 
01:40	22.5	22.5	22.5	86	19.0	0	0	---	0.00	30.330 
01:45	22.7	22.7	22.7	85	18.9	0	0	---	0.00	30.327 
01:50	22.9	22.9	22.9	85	19.1	0	0	---	0.00	30.324 
01:55	23.0	23.0	23.0	84	18.9	0	0	---	0.00	30.327 
02:00	23.2	23.2	23.2	84	19.1	0	0	---	0.00	30.323 
02:05	23.3	23.3	23.3	83	18.9	0	1	292	0.00	30.320 
02:10	23.5	23.5	23.5	82	18.8	0	1	292	0.00	30.318 
02:15	23.6	23.6	23.6	82	18.9	0	0	---	0.00	30.323 
02:20	23.8	23.8	23.8	82	19.1	0	0	---	0.00	30.319 
02:25	23.9	23.9	23.9	81	18.9	0	1	292	0.00	30.319 
02:30	24.1	24.1	24.1	81	19.1	0	0	---	0.00	30.319 
02:35	24.1	24.1	24.1	81	19.1	0	1	292	0.00	30.315 
02:40	24.2	24.2	24.2	80	18.9	0	1	292	0.00	30.314 
02:45	24.4	24.4	24.4	80	19.1	0	1	292	0.00	30.312 
02:50	24.5	24.5	24.5	79	18.9	0	0	---	0.00	30.314 
02:55	24.5	24.5	24.5	79	18.9	0	0	---	0.00	30.315 
03:00	24.7	24.7	24.7	79	19.1	0	0	---	0.00	30.314 
03:05	24.7	24.7	24.7	79	19.1	0	0	---	0.00	30.311 
03:10	24.8	24.8	24.8	78	18.9	0	1	292	0.00	30.307 
03:15	24.8	24.8	24.8	78	18.9	0	1	292	0.00	30.299 
03:20	25.0	25.0	25.0	77	18.8	0	1	292	0.00	30.299 
03:25	25.0	25.0	25.0	77	18.8	0	1	292	0.00	30.299 
03:30	25.1	25.1	25.1	77	18.9	0	1	292	0.00	30.298 
03:35	25.3	25.3	25.3	76	18.8	0	1	292	0.00	30.298 
03:40	25.3	25.3	25.3	76	18.8	0	0	---	0.00	30.298 
03:45	25.4	25.4	25.4	76	18.9	0	1	292	0.00	30.296 
03:50	25.4	25.4	25.4	75	18.6	0	1	292	0.00	30.289 
03:55	25.4	25.4	25.4	75	18.6	0	1	292	0.00	30.285 
04:00	25.6	25.6	25.6	74	18.5	0	1	292	0.00	30.284 
04:05	25.6	25.6	25.6	74	18.5	0	1	292	0.00	30.285 
04:10	25.6	25.6	25.6	74	18.5	0	2	292	0.00	30.281 
04:15	25.7	25.7	25.7	74	18.6	0	1	292	0.00	30.279 
04:20	25.7	25.7	25.7	74	18.6	0	2	292	0.00	30.283 
04:25	25.8	25.8	25.8	74	18.7	0	1	270	0.00	30.282 
04:30	25.8	25.8	25.8	73	18.4	0	2	270	0.00	30.271 
04:35	26.0	26.0	26.0	73	18.6	0	3	68	0.00	30.269 
04:40	26.0	26.0	26.0	73	18.6	0	2	112	0.00	30.267 
04:45	26.1	26.1	26.1	73	18.7	0	3	90	0.00	30.263 
04:50	26.1	26.1	26.1	73	18.7	0	2	90	0.00	30.266 
04:55	26.1	26.1	26.1	73	18.7	0	2	112	0.00	30.263 
05:00	26.3	26.3	26.3	73	18.8	1	3	90	0.00	30.255 
05:05	26.3	26.3	26.3	73	18.8	0	1	112	0.00	30.254 
05:10	26.4	26.4	26.4	73	18.9	0	1	112	0.00	30.256 
05:15	26.4	26.4	26.4	73	18.9	0	2	112	0.00	30.253 
05:20	26.4	26.4	26.4	74	19.3	0	2	112	0.00	30.250 
05:25	26.6	26.6	26.6	74	19.5	0	2	135	0.00	30.248 
05:30	26.6	26.6	26.6	74	19.5	0	3	135	0.00	30.245 
05:35	26.6	26.6	26.6	74	19.5	0	2	202	0.00	30.242 
05:40	26.6	26.6	26.6	74	19.5	0	2	158	0.00	30.237 
05:45	26.7	26.7	26.7	74	19.5	0	3	90	0.00	30.237 
05:50	26.7	26.7	26.7	74	19.5	0	2	315	0.00	30.237 
05:55	26.9	26.9	26.9	74	19.7	0	2	135	0.00	30.235 
06:00	26.9	26.9	26.9	74	19.7	0	2	112	0.00	30.229 
06:05	26.9	26.9	26.9	74	19.7	0	2	112	0.00	30.223 
06:10	27.0	27.0	27.0	74	19.8	0	1	135	0.00	30.222 
06:15	27.0	27.0	27.0	74	19.8	0	2	135	0.00	30.211 
06:20	27.0	27.0	27.0	74	19.8	0	2	112	0.00	30.208 
06:25	27.2	27.2	27.2	74	20.0	0	2	112	0.00	30.205 
06:30	27.2	27.2	27.2	74	20.0	0	3	112	0.00	30.206 
06:35	27.3	27.3	27.3	73	19.8	1	5	90	0.00	30.206 
06:40	27.5	27.5	27.5	73	20.0	1	3	112	0.00	30.207 
06:45	27.5	27.5	27.5	73	20.0	1	4	338	0.00	30.204 
06:50	27.6	27.6	27.6	72	19.8	1	6	90	0.00	30.200 
06:55	27.6	27.6	27.6	72	19.8	0	3	68	0.00	30.202 
07:00	27.6	27.6	27.6	72	19.8	0	3	90	0.00	30.200 
07:05	27.8	27.8	27.8	72	20.0	1	3	135	0.00	30.203 
07:10	27.8	27.8	27.8	71	19.6	1	4	90	0.00	30.202 
07:15	27.9	27.9	27.9	71	19.7	0	2	90	0.00	30.203 
07:20	27.9	27.9	27.9	71	19.7	1	3	248	0.00	30.203 
07:25	27.9	27.9	27.9	71	19.7	1	5	90	0.00	30.198 
07:30	28.1	28.1	28.1	71	19.9	1	3	90	0.00	30.194 
07:35	28.1	28.1	28.1	70	19.6	0	3	112	0.00	30.194 
07:40	28.1	28.1	28.1	70	19.6	1	4	112	0.00	30.193 
07:45	28.1	28.1	28.1	71	19.9	0	2	90	0.00	30.193 
07:50	28.2	28.2	28.2	70	19.7	1	3	90	0.00	30.191 
07:55	28.2	28.2	28.2	71	20.0	1	3	90	0.00	30.189 
08:00	28.2	28.2	28.2	71	20.0	0	2	315	0.00	30.187 
08:05	28.4	28.4	28.4	70	19.9	1	3	315	0.00	30.184 
08:10	28.4	28.4	28.4	70	19.9	1	4	112	0.00	30.182 
08:15	28.4	28.4	28.4	70	19.9	1	5	90	0.00	30.179 
08:20	28.5	28.5	28.5	70	20.0	1	4	112	0.00	30.178 
08:25	28.5	28.5	28.5	70	20.0	1	5	90	0.00	30.173 
08:30	28.5	28.5	28.5	70	20.0	1	3	315	0.00	30.177 
08:35	28.5	28.5	28.5	70	20.0	0	3	112	0.00	30.178 
08:40	28.7	28.7	28.7	70	20.2	0	3	270	0.00	30.176 
08:45	28.7	28.7	28.7	70	20.2	1	4	90	0.00	30.172 
08:50	28.8	28.8	28.8	70	20.3	1	2	90	0.00	30.170 
08:55	28.8	28.8	28.8	70	20.3	1	3	315	0.00	30.172 
09:00	28.8	28.8	28.8	70	20.3	1	3	45	0.00	30.165 
09:05	29.0	29.0	29.0	70	20.5	1	3	90	0.00	30.164 
09:10	29.1	29.1	29.1	70	20.6	0	4	68	0.00	30.164 
09:15	29.1	29.1	29.1	69	20.2	1	4	112	0.00	30.156 
09:20	29.3	29.3	29.3	69	20.4	1	4	135	0.00	30.158 
09:25	29.4	29.4	29.4	69	20.5	1	3	112	0.00	30.154 
09:30	29.5	29.5	29.5	69	20.6	1	4	90	0.00	30.149 
09:35	29.5	29.5	29.5	69	20.6	1	4	292	0.00	30.145 
09:40	29.7	29.7	29.7	68	20.5	1	6	315	0.00	30.143 
09:45	29.7	29.7	29.7	68	20.5	1	6	112	0.00	30.135 
09:50	29.8	29.8	29.8	68	20.5	1	6	248	0.00	30.135 
09:55	29.8	29.8	29.8	68	20.5	1	5	112	0.00	30.132 
10:00	30.0	30.0	30.0	68	20.7	1	4	68	0.00	30.130 
10:05	30.0	30.0	30.0	67	20.4	2	6	248	0.00	30.124 
10:10	30.1	30.1	30.1	67	20.5	2	7	68	0.00	30.120 
10:15	30.1	30.1	30.1	67	20.5	1	5	68	0.00	30.114 
10:20	30.3	30.3	30.3	67	20.7	1	5	315	0.00	30.107 
10:25	30.3	30.3	30.3	66	20.3	2	6	90	0.00	30.108 
10:30	30.4	30.4	30.4	66	20.4	2	6	248	0.00	30.104 
10:35	30.6	30.6	30.6	66	20.6	2	5	270	0.00	30.102 
10:40	30.6	30.6	30.6	65	20.3	2	7	315	0.00	30.100 
10:45	30.7	30.7	30.7	66	20.7	2	5	248	0.00	30.101 
10:50	30.9	30.9	30.9	66	20.9	1	6	248	0.00	30.100 
10:55	31.0	31.0	31.0	65	20.6	1	6	270	0.00	30.095 
11:00	31.2	31.2	31.2	66	21.2	1	5	90	0.00	30.091 
11:05	31.2	31.2	31.2	64	20.5	2	5	270	0.00	30.087 
11:10	31.3	31.3	31.3	65	20.9	1	7	248	0.00	30.086 
11:15	31.5	31.5	31.5	65	21.1	1	8	248	0.00	30.082 
11:20	31.5	31.5	31.5	64	20.7	2	9	248	0.00	30.080 
11:25	31.6	31.6	31.6	63	20.5	2	7	248	0.00	30.073 
11:30	31.6	31.6	31.6	63	20.5	1	6	270	0.00	30.067 
11:35	31.8	31.8	31.8	64	21.0	1	7	248	0.00	30.064 
11:40	31.9	31.9	31.9	62	20.4	2	5	270	0.00	30.053 
11:45	32.1	32.1	32.1	61	20.2	2	6	315	0.00	30.048 
11:50	32.4	32.4	32.4	62	20.9	1	7	270	0.00	30.042 
11:55	32.5	32.5	32.5	61	20.6	2	7	248	0.00	30.035 
12:00	32.7	32.7	32.7	61	20.8	2	7	248	0.00	30.031 
12:05	32.8	32.8	32.8	60	20.5	2	7	248	0.00	30.021 
12:10	32.8	32.8	32.8	59	20.1	2	9	112	0.00	30.017 
12:15	32.8	32.8	32.8	59	20.1	2	10	248	0.00	30.007 
12:20	32.9	32.9	32.9	57	19.4	2	8	248	0.00	30.003 
12:25	33.1	33.1	33.1	58	20.0	2	6	248	0.00	30.001 
12:30	33.1	33.1	33.1	58	20.0	3	7	248	0.00	29.992 
12:35	33.2	33.2	33.2	57	19.6	3	10	248	0.00	29.989 
12:40	33.5	33.5	33.5	58	20.3	2	9	248	0.00	29.985 
12:45	33.7	33.7	33.7	57	20.1	2	10	248	0.00	29.975 
12:50	34.0	34.0	34.0	55	19.6	2	7	315	0.00	29.970 
12:55	33.8	30.2	33.8	55	19.4	4	10	248	0.00	29.967 
13:00	34.1	34.1	34.1	56	20.1	2	5	225	0.00	29.956 
13:05	34.4	34.4	34.4	54	19.5	3	9	90	0.00	29.955 
13:10	34.6	34.6	34.6	54	19.7	3	7	248	0.00	29.953 
13:15	34.9	34.9	34.9	55	20.4	2	5	248	0.00	29.956 
13:20	35.2	35.2	35.2	57	21.5	2	6	248	0.00	29.955 
13:25	35.2	35.2	35.2	53	19.8	2	7	270	0.00	29.954 
13:30	35.2	35.2	35.2	53	19.8	3	9	225	0.00	29.953 
13:35	35.2	35.2	35.2	53	19.8	3	7	248	0.00	29.955 
13:40	35.3	35.3	35.3	53	19.9	3	9	248	0.00	29.952 
13:45	35.6	35.6	35.6	54	20.6	3	12	248	0.00	29.950 
13:50	35.8	35.8	35.8	54	20.8	2	6	248	0.00	29.949 
13:55	36.0	36.0	36.0	53	20.5	3	7	248	0.00	29.944 
14:00	36.2	36.2	36.2	52	20.3	3	9	248	0.00	29.934 
14:05	36.5	36.5	36.5	52	20.6	2	7	248	0.00	29.930 
14:10	36.8	36.8	36.8	52	20.8	2	6	248	0.00	29.928 
14:15	36.8	36.8	36.8	50	19.9	3	9	270	0.00	29.919 
14:20	36.6	33.4	36.6	50	19.7	4	11	270	0.00	29.917 
14:25	36.8	36.8	36.8	51	20.4	2	7	248	0.00	29.916 
14:30	37.0	33.9	37.0	49	19.6	4	11	248	0.00	29.916 
14:35	37.3	37.3	37.3	50	20.4	3	11	270	0.00	29.913 
14:40	37.5	37.5	37.5	49	20.1	3	12	248	0.00	29.914 
14:45	37.6	37.6	37.6	48	19.7	3	11	270	0.00	29.914 
14:50	37.6	33.7	37.6	49	20.2	5	14	270	0.00	29.914 
14:55	37.6	34.5	37.6	49	20.2	4	7	248	0.00	29.913 
15:00	37.6	37.6	37.6	49	20.2	3	7	248	0.00	29.914 
15:05	37.9	34.0	37.9	48	20.0	5	10	248	0.00	29.911 
15:10	38.0	38.0	38.0	48	20.1	3	7	248	0.00	29.907 
15:15	38.3	38.3	38.3	48	20.4	3	9	248	0.00	29.902 
15:20	38.3	35.4	38.3	48	20.4	4	10	248	0.00	29.900 
15:25	38.5	38.5	38.5	48	20.5	3	7	248	0.00	29.898 
15:30	38.8	38.8	38.8	48	20.8	3	11	292	0.00	29.898 
15:35	38.8	38.8	38.8	49	21.3	3	7	270	0.00	29.900 
15:40	38.8	38.8	38.8	49	21.3	2	5	248	0.00	29.898 
15:45	38.9	38.9	38.9	49	21.4	2	4	248	0.00	29.896 
15:50	38.9	38.9	38.9	48	20.9	3	9	248	0.00	29.893 
15:55	38.8	38.8	38.8	50	21.8	2	6	248	0.00	29.896 
16:00	38.8	38.8	38.8	49	21.3	3	6	248	0.00	29.896 
16:05	38.6	38.6	38.6	50	21.6	3	7	270	0.00	29.893 
16:10	38.5	38.5	38.5	50	21.5	2	6	248	0.00	29.893 
16:15	38.5	38.5	38.5	50	21.5	2	7	248	0.00	29.892 
16:20	38.5	38.5	38.5	51	22.0	2	5	225	0.00	29.889 
16:25	38.5	38.5	38.5	51	22.0	1	5	248	0.00	29.887 
16:30	38.3	38.3	38.3	52	22.2	1	6	248	0.00	29.883 
16:35	38.3	38.3	38.3	52	22.2	1	4	248	0.00	29.881 
16:40	38.3	38.3	38.3	53	22.7	1	4	248	0.00	29.882 
16:45	38.3	38.3	38.3	53	22.7	1	6	248	0.00	29.881 
16:50	38.3	38.3	38.3	53	22.7	1	3	248	0.00	29.881 
16:55	38.2	38.2	38.2	53	22.6	1	3	248	0.00	29.884 
17:00	38.2	38.2	38.2	54	23.0	1	5	248	0.00	29.888 
17:05	38.0	38.0	38.0	54	22.9	0	2	248	0.00	29.890 
17:10	37.9	37.9	37.9	55	23.2	1	3	248	0.00	29.884 
17:15	37.9	37.9	37.9	55	23.2	2	5	248	0.00	29.882 
17:20	37.9	37.9	37.9	56	23.6	1	3	248	0.00	29.881 
17:25	37.9	37.9	37.9	56	23.6	2	6	248	0.00	29.881 
17:30	37.9	37.9	37.9	57	24.0	1	4	248	0.00	29.881 
17:35	37.9	37.9	37.9	57	24.0	2	4	248	0.00	29.882 
17:40	37.8	37.8	37.8	57	24.0	1	4	248	0.00	29.883 
17:45	37.6	37.6	37.6	58	24.2	0	1	248	0.00	29.881 
17:50	37.3	37.3	37.3	58	23.9	0	4	248	0.00	29.882 
17:55	37.3	37.3	37.3	58	23.9	1	3	248	0.00	29.884 
18:00	37.2	37.2	37.2	59	24.2	1	5	248	0.00	29.884 
18:05	37.0	37.0	37.0	59	24.0	0	3	248	0.00	29.890 
18:10	36.9	36.9	36.9	60	24.3	0	2	248	0.00	29.896 
18:15	36.8	36.8	36.8	61	24.6	0	1	248	0.00	29.898 
18:20	36.8	36.8	36.8	61	24.6	0	4	248	0.00	29.899 
18:25	36.8	36.8	36.8	62	25.0	1	5	248	0.00	29.902 
18:30	37.0	37.0	37.0	62	25.2	1	4	248	0.00	29.908 
18:35	37.2	37.2	37.2	62	25.4	1	3	248	0.00	29.909 
18:40	37.3	37.3	37.3	62	25.5	1	3	248	0.00	29.908 
18:45	37.5	37.5	37.5	62	25.7	1	5	248	0.00	29.908 
18:50	37.8	37.8	37.8	62	26.0	1	6	248	0.00	29.908 
18:55	37.9	37.9	37.9	63	26.4	2	7	248	0.00	29.909 
19:00	38.0	38.0	38.0	62	26.2	1	5	248	0.00	29.910 
19:05	38.2	38.2	38.2	62	26.3	1	4	248	0.00	29.910 
19:10	38.2	38.2	38.2	62	26.3	1	4	248	0.00	29.910 
19:15	38.3	38.3	38.3	62	26.4	2	5	248	0.00	29.910 
19:20	38.5	38.5	38.5	62	26.6	1	6	248	0.00	29.910 
19:25	38.5	38.5	38.5	63	27.0	2	5	248	0.00	29.910 
19:30	38.6	38.6	38.6	63	27.1	2	4	248	0.00	29.909 
19:35	38.6	38.6	38.6	63	27.1	1	3	248	0.00	29.909 
19:40	38.8	38.8	38.8	63	27.3	2	5	248	0.00	29.910 
19:45	38.8	38.8	38.8	63	27.3	1	3	248	0.00	29.909 
19:50	38.8	38.8	38.8	63	27.3	1	5	248	0.00	29.908 
19:55	38.9	38.9	38.9	63	27.4	2	9	248	0.00	29.908 
20:00	38.9	38.9	38.9	63	27.4	1	5	248	0.00	29.908 
20:05	39.1	39.1	39.1	64	28.0	1	5	270	0.00	29.904 
20:10	39.1	39.1	39.1	64	28.0	1	3	248	0.00	29.904 
20:15	39.1	39.1	39.1	64	28.0	1	3	248	0.00	29.906 
20:20	39.1	39.1	39.1	64	28.0	1	3	248	0.00	29.903 
20:25	39.1	39.1	39.1	65	28.3	2	4	248	0.00	29.903 
20:30	39.1	39.1	39.1	65	28.3	2	6	248	0.00	29.903 
20:35	39.1	39.1	39.1	65	28.3	1	3	248	0.00	29.903 
20:40	39.1	39.1	39.1	65	28.3	2	4	270	0.00	29.901 
20:45	39.2	39.2	39.2	65	28.4	2	6	248	0.00	29.901 
20:50	39.1	39.1	39.1	65	28.3	2	5	248	0.00	29.900 
20:55	39.1	39.1	39.1	66	28.7	1	3	248	0.00	29.899 
21:00	38.9	38.9	38.9	66	28.5	1	3	248	0.00	29.900 
21:05	38.9	38.9	38.9	66	28.5	1	3	270	0.00	29.901 
21:10	38.8	38.8	38.8	67	28.8	1	3	248	0.00	29.902 
21:15	38.8	38.8	38.8	67	28.8	1	2	248	0.00	29.902 
21:20	38.6	38.6	38.6	67	28.6	1	3	248	0.00	29.906 
21:25	38.6	38.6	38.6	68	29.0	1	5	225	0.00	29.906 
21:30	38.5	38.5	38.5	68	28.9	1	4	248	0.00	29.906 
21:35	38.5	38.5	38.5	69	29.2	1	3	248	0.00	29.907 
21:40	38.5	38.5	38.5	69	29.2	1	3	248	0.00	29.908 
21:45	38.3	38.3	38.3	69	29.0	1	2	248	0.00	29.909 
21:50	38.2	38.2	38.2	70	29.3	0	2	248	0.00	29.909 
21:55	38.2	38.2	38.2	70	29.3	1	3	248	0.00	29.911 
22:00	38.2	38.2	38.2	70	29.3	0	1	248	0.00	29.913 
22:05	38.0	38.0	38.0	70	29.1	1	2	248	0.00	29.912 
22:10	38.0	38.0	38.0	71	29.4	0	2	248	0.00	29.913 
22:15	38.0	38.0	38.0	71	29.4	1	3	248	0.00	29.912 
22:20	38.0	38.0	38.0	71	29.4	0	2	248	0.00	29.912 
22:25	37.9	37.9	37.9	71	29.4	0	2	248	0.00	29.916 
22:30	37.9	37.9	37.9	71	29.4	1	3	248	0.00	29.919 
22:35	37.9	37.9	37.9	71	29.4	0	2	338	0.00	29.919 
22:40	38.0	38.0	38.0	70	29.1	0	4	270	0.00	29.921 
22:45	38.2	38.2	38.2	71	29.6	0	4	0	0.00	29.923 
22:50	38.3	38.3	38.3	70	29.4	1	5	315	0.00	29.924 
22:55	38.5	38.5	38.5	70	29.6	1	5	338	0.00	29.923 
23:00	38.6	38.6	38.6	69	29.3	1	4	270	0.00	29.923 
23:05	38.8	38.8	38.8	69	29.5	1	4	338	0.00	29.922 
23:10	38.8	38.8	38.8	69	29.5	1	3	338	0.00	29.924 
23:15	38.8	38.8	38.8	69	29.5	1	2	338	0.00	29.928 
23:20	38.8	38.8	38.8	69	29.5	2	5	315	0.00	29.927 
23:25	38.8	38.8	38.8	69	29.5	1	3	315	0.00	29.926 
23:30	38.8	38.8	38.8	70	29.9	1	3	338	0.00	29.929 
23:35	38.8	38.8	38.8	70	29.9	1	3	292	0.00	29.933 
23:40	38.6	38.6	38.6	70	29.7	1	5	338	0.00	29.935 
23:45	38.6	38.6	38.6	70	29.7	1	6	315	0.00	29.936 
23:50	38.6	38.6	38.6	70	29.7	2	6	315	0.00	29.937 
23:55	38.5	38.5	38.5	70	29.6	1	4	292	0.00	29.938 

CoCoRaHS
IN-AL-39
A2 Web Hosting
Creative Commons License
GoDaddy
Look for:

loaded 2017-12-12 02:00:33 • last modified 2010-11-18 10:43:29
Privacy PolicyDisclaimer
• wx.awcolley.com is powered by PmWiki v.2002016 •
• all content (unless otherwise noted) © 2017 A W Colley